• Join FlightAware (Why Join?)
  • Login
  • US Flag 
08:38PM EST


 

Airport Tracker/Info


-or-


 

Live Flight TrackerFlight Track Log ✈ TAP669 ✈ 04-Jul-2013 ✈ EHAM / AMS - LPPT / LIS

Flight Track Log - Related Links

Times and Time Zones

All times are in EDT time to prevent confusion due to time zone crossing. See the TAP669 flight status page for this flight to view local times or setup timezone preferences in your user account.

Time Position Orientation Groundspeed Altitude Reporting Facility
EDT Latitude Longitude Course Direction KTS MPH feet Rate Location/Type
01:21AM 47.5524 -1.1446 221° Southwest  Level Estimated
01:22AM 47.4633 -1.2417 216° Southwest  Level Estimated
01:23AM 47.3742 -1.3386 216° Southwest  Level Estimated
01:24AM 47.2849 -1.4351 216° Southwest  Level Estimated
01:25AM 47.1956 -1.5313 216° Southwest  Level Estimated
01:26AM 47.1062 -1.6271 216° Southwest  Level Estimated
01:27AM 47.0167 -1.7227 216° Southwest  Level Estimated
01:28AM 46.9271 -1.8179 216° Southwest  Level Estimated
01:29AM 46.8375 -1.9128 216° Southwest  Level Estimated
01:30AM 46.7478 -2.0074 216° Southwest  Level Estimated
01:31AM 46.6580 -2.1016 216° Southwest  Level Estimated
01:32AM 46.5681 -2.1956 216° Southwest  Level Estimated
01:33AM 46.4781 -2.2892 216° Southwest  Level Estimated
01:34AM 46.3881 -2.3826 216° Southwest  Level Estimated
01:35AM 46.2980 -2.4756 216° Southwest  Level Estimated
01:36AM 46.2078 -2.5683 215° Southwest  Level Estimated
01:37AM 46.1176 -2.6607 215° Southwest  Level Estimated
01:38AM 46.0272 -2.7529 215° Southwest  Level Estimated
01:39AM 45.9368 -2.8447 215° Southwest  Level Estimated
01:40AM 45.8464 -2.9362 215° Southwest  Level Estimated
01:41AM 45.7558 -3.0274 215° Southwest  Level Estimated
01:42AM 45.6652 -3.1184 215° Southwest  Level Estimated
01:43AM 45.5745 -3.2090 215° Southwest  Level Estimated
01:44AM 45.4837 -3.2993 215° Southwest  Level Estimated
01:45AM 45.3929 -3.3894 215° Southwest  Level Estimated
01:46AM 45.3020 -3.4791 215° Southwest  Level Estimated
01:47AM 45.2110 -3.5686 215° Southwest  Level Estimated
01:48AM 45.1200 -3.6578 215° Southwest  Level Estimated
01:49AM 45.0288 -3.7467 215° Southwest  Level Estimated
01:50AM 44.9377 -3.8353 215° Southwest  Level Estimated
01:51AM 44.8464 -3.9236 214° Southwest  Level Estimated
01:52AM 44.7551 -4.0117 214° Southwest  Level Estimated
01:53AM 44.6637 -4.0995 214° Southwest  Level Estimated
01:54AM 44.5723 -4.1870 214° Southwest  Level Estimated
01:55AM 44.4807 -4.2742 214° Southwest  Level Estimated
01:56AM 44.3891 -4.3612 214° Southwest  Level Estimated
01:57AM 44.2975 -4.4478 214° Southwest  Level Estimated
01:58AM 44.2058 -4.5342 214° Southwest  Level Estimated
01:59AM 44.1140 -4.6204 214° Southwest  Level Estimated
02:00AM 44.0221 -4.7063 214° Southwest  Level Estimated
02:01AM 43.9302 -4.7919 214° Southwest  Level Estimated
02:02AM 43.8382 -4.8772 214° Southwest  Level Estimated
02:03AM 43.7462 -4.9623 214° Southwest  Level Estimated
02:04AM 43.6541 -5.0471 214° Southwest  Level Estimated
02:05AM 43.5620 -5.1317 214° Southwest  Level Estimated
02:06AM 43.4697 -5.2160 214° Southwest  Level Estimated
02:07AM 43.3774 -5.3000 214° Southwest  Level Estimated
02:08AM 43.2851 -5.3838 213° Southwest  Level Estimated
02:09AM 43.1927 -5.4674 213° Southwest  Level Estimated
02:10AM 43.1002 -5.5507 213° Southwest  Level Estimated
02:11AM 43.0077 -5.6337 213° Southwest  Level Estimated
02:12AM 42.9151 -5.7165 213° Southwest  Level Estimated
02:13AM 42.8224 -5.7990 213° Southwest  Level Estimated
02:14AM 42.7297 -5.8813 213° Southwest  Level Estimated
02:15AM 42.6370 -5.9633 213° Southwest  Level Estimated
02:16AM 42.5441 -6.0451 213° Southwest  Level Estimated
02:17AM 42.4512 -6.1267 213° Southwest  Level Estimated
02:18AM 42.3583 -6.2080 213° Southwest  Level Estimated
02:19AM 42.2653 -6.2891 213° Southwest  Level Estimated
02:20AM 42.1722 -6.3699 213° Southwest  Level Estimated
02:21AM 42.0791 -6.4505 213° Southwest  Level Estimated
02:22AM 41.9860 -6.5308 213° Southwest  Level Estimated
02:23AM 41.8927 -6.6110 213° Southwest  Level Estimated
02:24AM 41.7994 -6.6908 213° Southwest  Level Estimated
02:25AM 41.7061 -6.7705 213° Southwest  Level Estimated
02:26AM 41.6127 -6.8499 212° Southwest  Level Estimated
02:27AM 41.5193 -6.9291 212° Southwest  Level Estimated
02:28AM 41.4258 -7.0081 212° Southwest  Level Estimated
02:29AM 41.3322 -7.0869 212° Southwest  Level Estimated
02:30AM 41.2386 -7.1654 212° Southwest  Level Estimated
02:31AM 41.1449 -7.2437 212° Southwest  Level Estimated
02:32AM 41.0512 -7.3217 212° Southwest  Level Estimated
02:33AM 40.9575 -7.3996 212° Southwest  Level Estimated
02:34AM 40.8636 -7.4772 212° Southwest  Level Estimated
02:35AM 40.7698 -7.5546 212° Southwest  Level Estimated
02:36AM 40.6758 -7.6318 212° Southwest  Level Estimated
02:37AM 40.5819 -7.7088 212° Southwest  Level Estimated
02:38AM 40.4879 -7.7855 212° Southwest  Level Estimated
02:39AM 40.3938 -7.8621 212° Southwest  Level Estimated
02:40AM 40.2997 -7.9384 212° Southwest  Level Estimated
02:41AM 40.2055 -8.0145 212° Southwest  Level Estimated
02:42AM 40.1113 -8.0904 212° Southwest  Level Estimated
02:43AM 40.0170 -8.1661 212° Southwest  Level Estimated
02:44AM 39.9227 -8.2416 212° Southwest  Level Estimated
02:45AM 39.8283 -8.3168 211° Southwest  Level Estimated
02:46AM 39.7339 -8.3919 211° Southwest  Level Estimated
02:47AM 39.6394 -8.4668 211° Southwest  Level Estimated
02:48AM 39.5449 -8.5414 211° Southwest  Level Estimated
02:49AM 39.4503 -8.6159 211° Southwest  Level Estimated
02:50AM 39.3557 -8.6902 211° Southwest  Level Estimated
02:51AM 39.2611 -8.7642 211° Southwest  Level Estimated
02:52AM 39.1664 -8.8380 211° Southwest  Level Estimated
02:53AM 39.0716 -8.9117 211° Southwest  Level Estimated
02:54AM 38.9768 -8.9852 211° Southwest  Level Estimated
02:55AM 38.8820 -9.0584 211° Southwest  Level Estimated
02:56AM 38.7871 -9.1315 211° Southwest  Level Estimated
02:57AM 38.7813 -9.1359 211° Southwest  Level Estimated
02:58AM 38.7813 -9.1359 38° Northeast  Level Estimated
02:59AM 38.7813 -9.1359 38° Northeast  Level Estimated
03:00AM 38.7813 -9.1359 38° Northeast  Level Estimated
03:01AM 38.7813 -9.1359 38° Northeast  Level Estimated
03:02AM 38.7813 -9.1359 38° Northeast  Level Estimated
03:03AM 38.7813 -9.1359 38° Northeast  Level Estimated
03:04AM 38.7813 -9.1359 38° Northeast  Level Estimated
03:05AM 38.7813 -9.1359 38° Northeast  Level Estimated
03:06AM 38.7813 -9.1359 38° Northeast  Level Estimated
03:07AM 38.7813 -9.1359 38° Northeast  Level Estimated
03:08AM 38.7813 -9.1359 38° Northeast  Level Estimated
03:09AM 38.7813 -9.1359 38° Northeast  Level Estimated
03:10AM 38.7813 -9.1359 38° Northeast  Level Estimated
03:11AM 38.7813 -9.1359 38° Northeast  Level Estimated
03:12AM 38.7813 -9.1359 38° Northeast  Level Estimated